createdAt,value
2023-02-17T00:02:32.987Z,97.78
2023-02-17T00:05:40.532Z,98.07
2023-02-17T00:08:44.238Z,103.55
2023-02-17T00:11:47.448Z,99.30
2023-02-17T00:14:50.822Z,94.97
2023-02-17T00:17:54.038Z,95.22
2023-02-17T00:20:57.276Z,97.72
2023-02-17T00:24:00.776Z,102.40
2023-02-17T00:27:05.044Z,103.93
2023-02-17T00:30:09.390Z,110.18
2023-02-17T00:33:12.649Z,107.07
2023-02-17T00:36:18.647Z,107.13
2023-02-17T00:39:21.875Z,106.78
2023-02-17T00:42:25.692Z,115.10
2023-02-17T00:45:28.854Z,124.45
2023-02-17T00:48:32.634Z,116.40
2023-02-17T00:51:35.851Z,126.10
2023-02-17T00:54:42.062Z,123.83
2023-02-17T00:57:46.285Z,126.45
2023-02-17T01:00:49.750Z,135.77
2023-02-17T01:03:53.055Z,126.43
2023-02-17T01:06:56.262Z,131.87
2023-02-17T01:09:59.962Z,126.95
2023-02-17T01:13:05.104Z,127.05
2023-02-17T01:16:16.409Z,128.05
2023-02-17T01:19:20.324Z,122.10
2023-02-17T01:22:24.624Z,119.38
2023-02-17T01:25:27.693Z,114.22
2023-02-17T01:28:32.449Z,116.13
2023-02-17T01:31:35.987Z,115.63
2023-02-17T01:34:39.540Z,105.72
2023-02-17T01:37:42.967Z,115.30
2023-02-17T01:40:47.919Z,117.50
2023-02-17T01:44:20.737Z,117.35
2023-02-17T01:47:23.914Z,114.97
2023-02-17T01:50:36.264Z,116.73
2023-02-17T01:53:42.515Z,108.35
2023-02-17T01:56:48.530Z,115.05
2023-02-17T01:59:52.362Z,115.53
2023-02-17T02:02:56.031Z,115.33
2023-02-17T02:06:01.110Z,122.95
2023-02-17T02:09:15.084Z,120.30
2023-02-17T02:12:31.283Z,128.07
2023-02-17T02:16:12.043Z,122.18
2023-02-17T02:19:52.277Z,125.32
2023-02-17T02:23:04.246Z,127.47
2023-02-17T02:26:26.452Z,127.38
2023-02-17T02:30:02.365Z,124.55
2023-02-17T02:33:09.760Z,120.47
2023-02-17T02:36:15.650Z,120.53
2023-02-17T02:39:24.990Z,124.38
2023-02-17T02:42:29.035Z,122.32
2023-02-17T02:45:34.932Z,129.53
2023-02-17T02:48:39.260Z,119.55
2023-02-17T02:52:14.965Z,116.05
2023-02-17T02:55:46.884Z,117.05
2023-02-17T02:59:29.464Z,117.65
2023-02-17T03:02:44.720Z,111.97
2023-02-17T03:06:03.385Z,108.47
2023-02-17T03:09:23.061Z,117.27
2023-02-17T03:12:27.847Z,109.20
2023-02-17T03:15:34.916Z,113.53
2023-02-17T03:18:38.441Z,105.20
2023-02-17T03:21:52.820Z,105.25
2023-02-17T03:24:56.122Z,100.82
2023-02-17T03:27:59.383Z,103.88
2023-02-17T03:31:02.709Z,94.75
2023-02-17T03:34:06.267Z,97.55
2023-02-17T03:37:09.499Z,89.43
2023-02-17T03:40:13.104Z,96.50
2023-02-17T03:43:18.136Z,103.65
2023-02-17T03:46:22.216Z,105.88
2023-02-17T03:49:25.544Z,107.60
2023-02-17T03:52:28.837Z,106.70
2023-02-17T03:55:32.068Z,107.88
2023-02-17T03:58:35.814Z,101.07
2023-02-17T04:01:39.100Z,101.60
2023-02-17T04:04:42.328Z,100.03
2023-02-17T04:07:45.491Z,98.43
2023-02-17T04:10:56.520Z,90.17
2023-02-17T04:13:59.834Z,106.30
2023-02-17T04:17:02.979Z,92.10
2023-02-17T04:20:08.114Z,95.13
2023-02-17T04:23:14.501Z,96.35
2023-02-17T04:26:17.838Z,92.78
2023-02-17T04:29:21.261Z,93.10
2023-02-17T04:32:24.436Z,92.97
2023-02-17T04:35:27.931Z,88.57
2023-02-17T04:38:32.424Z,81.47
2023-02-17T04:41:35.765Z,83.43
2023-02-17T04:44:39.021Z,88.93
2023-02-17T04:47:42.394Z,90.07
2023-02-17T04:50:45.853Z,90.00
2023-02-17T04:53:49.114Z,89.75
2023-02-17T04:56:52.324Z,90.78
2023-02-17T04:59:55.787Z,87.72
2023-02-17T05:02:59.121Z,88.35
2023-02-17T05:06:02.264Z,92.25
2023-02-17T05:09:05.630Z,90.95
2023-02-17T05:12:08.917Z,92.27
2023-02-17T05:15:12.496Z,84.90
2023-02-17T05:18:16.073Z,85.68
2023-02-17T05:21:19.261Z,84.00
2023-02-17T05:24:22.741Z,86.75
2023-02-17T05:27:26.143Z,84.40
2023-02-17T05:30:29.669Z,85.95
2023-02-17T05:33:33.315Z,84.75
2023-02-17T05:36:36.606Z,86.45
2023-02-17T05:39:40.035Z,83.50
2023-02-17T05:42:45.929Z,86.53
2023-02-17T05:45:49.191Z,87.32
2023-02-17T05:48:52.397Z,82.03
2023-02-17T05:51:55.722Z,95.73
2023-02-17T05:54:58.839Z,83.80
2023-02-17T05:58:02.509Z,82.68
2023-02-17T06:01:12.434Z,82.90
2023-02-17T06:04:15.746Z,76.82
2023-02-17T06:07:19.128Z,66.93
2023-02-17T06:10:22.561Z,75.38
2023-02-17T06:13:26.195Z,65.13
2023-02-17T06:16:29.686Z,81.10
2023-02-17T06:19:33.266Z,71.82
2023-02-17T06:22:37.923Z,76.13
2023-02-17T06:25:42.755Z,74.28
2023-02-17T06:28:46.095Z,67.05
2023-02-17T06:31:50.901Z,72.38
2023-02-17T06:34:54.403Z,77.10
2023-02-17T06:37:57.731Z,77.82
2023-02-17T06:41:01.110Z,71.80
2023-02-17T06:44:04.475Z,72.03
2023-02-17T06:47:07.669Z,70.32
2023-02-17T06:50:12.400Z,69.15
2023-02-17T06:53:25.772Z,76.85
2023-02-17T06:56:31.599Z,75.70
2023-02-17T06:59:35.099Z,68.53
2023-02-17T07:02:47.943Z,65.22
2023-02-17T07:05:51.627Z,75.70
2023-02-17T07:09:09.567Z,63.27
2023-02-17T07:12:13.109Z,66.40
2023-02-17T07:15:16.503Z,72.47
2023-02-17T07:18:22.555Z,77.18
2023-02-17T07:21:26.407Z,61.67
2023-02-17T07:24:30.094Z,72.13
2023-02-17T07:27:35.223Z,73.35
2023-02-17T07:30:42.152Z,68.20
2023-02-17T07:33:48.761Z,68.30
2023-02-17T07:36:54.935Z,76.15
2023-02-17T07:39:58.342Z,78.53
2023-02-17T07:43:03.581Z,74.18
2023-02-17T07:46:08.864Z,67.90
2023-02-17T07:49:15.568Z,61.30
2023-02-17T07:52:19.508Z,65.30
2023-02-17T07:55:22.873Z,56.07
2023-02-17T07:58:26.315Z,59.40
2023-02-17T08:01:29.673Z,60.60
2023-02-17T08:04:33.106Z,58.15
2023-02-17T08:07:43.638Z,54.08
2023-02-17T08:11:06.237Z,61.33
2023-02-17T08:14:11.567Z,59.28
2023-02-17T08:17:16.167Z,59.95
2023-02-17T08:20:19.696Z,57.20
2023-02-17T08:23:23.395Z,58.83
2023-02-17T08:26:26.675Z,63.78
2023-02-17T08:29:32.876Z,59.50
2023-02-17T08:32:36.219Z,58.20
2023-02-17T08:35:39.525Z,63.17
2023-02-17T08:38:50.277Z,57.47
2023-02-17T08:42:06.123Z,58.17
2023-02-17T08:45:09.965Z,55.00
2023-02-17T08:48:13.317Z,57.80
2023-02-17T08:51:18.470Z,56.35
2023-02-17T08:54:22.011Z,62.90
2023-02-17T08:57:28.378Z,51.17
2023-02-17T09:00:31.721Z,54.38
2023-02-17T09:03:37.928Z,58.95
2023-02-17T09:06:48.432Z,56.20
2023-02-17T09:09:51.870Z,48.90
2023-02-17T09:12:55.250Z,53.92
2023-02-17T09:15:59.644Z,60.67
2023-02-17T09:19:03.380Z,56.90
2023-02-17T09:22:06.762Z,53.35
2023-02-17T09:25:11.316Z,54.27
2023-02-17T09:28:15.506Z,59.22
2023-02-17T09:31:25.015Z,61.88
2023-02-17T09:34:38.833Z,60.00
2023-02-17T09:37:43.868Z,58.30
2023-02-17T09:40:49.982Z,60.30
2023-02-17T09:43:55.035Z,58.40
2023-02-17T09:47:38.661Z,56.15
2023-02-17T09:50:54.619Z,60.90
2023-02-17T09:54:29.802Z,64.78
2023-02-17T09:57:48.008Z,54.07
2023-02-17T10:00:56.986Z,46.03
2023-02-17T10:04:20.984Z,58.28
2023-02-17T10:07:33.134Z,58.67
2023-02-17T10:10:46.262Z,62.28
2023-02-17T10:13:57.406Z,57.23
2023-02-17T10:17:12.376Z,61.83
2023-02-17T10:20:24.696Z,57.55
2023-02-17T10:23:30.860Z,63.35
2023-02-17T10:26:56.778Z,61.15
2023-02-17T10:30:19.757Z,53.33
2023-02-17T10:33:50.232Z,51.40
2023-02-17T10:37:15.319Z,61.53
2023-02-17T10:40:29.201Z,58.83
2023-02-17T10:43:33.589Z,57.95
2023-02-17T10:46:40.576Z,70.30
2023-02-17T10:49:50.885Z,61.97
2023-02-17T10:52:56.423Z,64.28
2023-02-17T10:56:23.964Z,63.28
2023-02-17T10:59:38.448Z,59.70
2023-02-17T11:02:52.337Z,65.37
2023-02-17T11:06:02.774Z,57.97
2023-02-17T11:09:32.827Z,51.65
2023-02-17T11:12:44.589Z,67.80
2023-02-17T11:15:48.223Z,64.47
2023-02-17T11:18:58.650Z,41.40
2023-02-17T11:22:05.188Z,59.73
2023-02-17T11:25:31.963Z,51.17
2023-02-17T11:28:35.409Z,50.55
2023-02-17T11:31:41.798Z,55.47
2023-02-17T11:34:55.851Z,46.30
2023-02-17T11:38:13.994Z,44.00
2023-02-17T11:41:17.631Z,46.78
2023-02-17T11:44:28.295Z,35.88
2023-02-17T11:48:07.604Z,40.05
2023-02-17T11:51:35.803Z,34.80
2023-02-17T11:54:49.362Z,38.37
2023-02-17T11:58:30.633Z,40.70
2023-02-17T12:01:41.640Z,39.42
2023-02-17T12:05:19.726Z,48.15
2023-02-17T12:08:43.044Z,38.43
2023-02-17T12:12:33.773Z,44.03
2023-02-17T12:16:02.856Z,44.90
2023-02-17T12:19:41.370Z,44.15
2023-02-17T12:22:50.612Z,42.65
2023-02-17T12:26:14.623Z,50.37
2023-02-17T12:29:20.850Z,47.83
2023-02-17T12:32:32.917Z,42.92
2023-02-17T12:35:53.002Z,42.35
2023-02-17T12:39:02.966Z,36.88
2023-02-17T12:42:26.629Z,36.50
2023-02-17T12:45:46.580Z,45.57
2023-02-17T12:49:13.888Z,43.28
2023-02-17T12:52:30.922Z,40.20
2023-02-17T12:55:52.216Z,30.17
2023-02-17T12:59:05.778Z,37.77
2023-02-17T13:02:20.260Z,39.50
2023-02-17T13:05:42.166Z,38.95
2023-02-17T13:08:58.669Z,42.78
2023-02-17T13:12:17.740Z,35.38
2023-02-17T13:15:47.498Z,38.50
2023-02-17T13:18:52.488Z,36.93
2023-02-17T13:21:58.578Z,36.15
2023-02-17T13:25:02.838Z,30.30
2023-02-17T13:28:34.340Z,37.17
2023-02-17T13:31:46.905Z,30.43
2023-02-17T13:35:01.949Z,30.43
2023-02-17T13:38:05.315Z,33.95
2023-02-17T13:41:12.357Z,30.20
2023-02-17T13:44:34.490Z,31.00
2023-02-17T13:47:41.159Z,26.60
2023-02-17T13:50:50.663Z,23.37
2023-02-17T13:54:09.450Z,27.20
2023-02-17T13:57:27.162Z,22.95
2023-02-17T14:00:32.386Z,26.33
2023-02-17T14:03:46.721Z,25.37
2023-02-17T14:06:50.082Z,29.43
2023-02-17T14:09:55.165Z,24.67
2023-02-17T14:12:58.642Z,25.55
2023-02-17T14:16:01.977Z,22.83
2023-02-17T14:19:06.766Z,26.70
2023-02-17T14:22:23.596Z,25.30
2023-02-17T14:25:29.834Z,29.05
2023-02-17T14:28:33.091Z,27.60
2023-02-17T14:31:41.849Z,24.70
2023-02-17T14:34:45.284Z,25.57
2023-02-17T14:37:48.809Z,22.13
2023-02-17T14:40:53.521Z,23.15
2023-02-17T14:43:57.255Z,23.05
2023-02-17T14:47:00.675Z,23.70
2023-02-17T14:50:04.176Z,22.73
2023-02-17T14:53:19.133Z,20.13
2023-02-17T14:56:27.510Z,22.33
2023-02-17T14:59:30.835Z,21.88
2023-02-17T15:02:34.607Z,25.95
2023-02-17T15:05:37.813Z,20.33
2023-02-17T15:08:41.622Z,21.13
2023-02-17T15:11:49.249Z,22.48
2023-02-17T15:14:52.530Z,18.10
2023-02-17T15:17:55.784Z,21.55
2023-02-17T15:20:59.468Z,20.50
2023-02-17T15:24:06.543Z,21.20
2023-02-17T15:27:15.499Z,26.20
2023-02-17T15:30:22.873Z,22.38
2023-02-17T15:33:26.985Z,20.13
2023-02-17T15:36:30.341Z,21.00
2023-02-17T15:39:33.971Z,19.20
2023-02-17T15:42:37.595Z,18.45
2023-02-17T15:45:41.038Z,19.30
2023-02-17T15:48:48.500Z,17.95
2023-02-17T15:51:53.915Z,20.70
2023-02-17T15:54:57.345Z,20.83
2023-02-17T15:58:04.490Z,18.77
2023-02-17T16:01:12.268Z,20.50
2023-02-17T16:04:16.014Z,18.98
2023-02-17T16:07:19.216Z,21.57
2023-02-17T16:10:27.344Z,18.27
2023-02-17T16:13:31.238Z,23.67
2023-02-17T16:16:36.217Z,19.30
2023-02-17T16:19:40.389Z,25.45
2023-02-17T16:22:45.399Z,20.70
2023-02-17T16:25:52.783Z,22.23
2023-02-17T16:28:56.389Z,24.00
2023-02-17T16:31:59.692Z,19.48
2023-02-17T16:35:02.984Z,19.13
2023-02-17T16:38:20.401Z,20.03
2023-02-17T16:41:26.099Z,22.97
2023-02-17T16:44:29.652Z,26.70
2023-02-17T16:47:33.050Z,21.17
2023-02-17T16:50:36.629Z,20.48
2023-02-17T16:53:39.943Z,21.07
2023-02-17T16:56:47.596Z,21.23
2023-02-17T16:59:51.392Z,25.80
2023-02-17T17:02:56.951Z,29.45
2023-02-17T17:06:01.706Z,24.73
2023-02-17T17:09:06.268Z,25.20
2023-02-17T17:12:11.590Z,25.13
2023-02-17T17:15:17.372Z,26.10
2023-02-17T17:18:21.863Z,25.17
2023-02-17T17:21:26.139Z,25.23
2023-02-17T17:24:30.742Z,25.57
2023-02-17T17:27:34.032Z,26.90
2023-02-17T17:30:37.468Z,26.00
2023-02-17T17:33:41.486Z,26.90
2023-02-17T17:36:46.932Z,23.73
2023-02-17T17:39:50.350Z,25.60
2023-02-17T17:42:53.918Z,26.27
2023-02-17T17:46:00.363Z,29.33
2023-02-17T17:49:06.126Z,22.88
2023-02-17T17:52:09.517Z,25.70
2023-02-17T17:55:13.266Z,26.43
2023-02-17T17:58:17.238Z,24.33
2023-02-17T18:01:22.311Z,23.13
2023-02-17T18:04:25.866Z,22.98
2023-02-17T18:07:29.840Z,24.83
2023-02-17T18:10:33.547Z,22.40
2023-02-17T18:13:38.081Z,19.03
2023-02-17T18:16:46.187Z,21.63
2023-02-17T18:19:54.637Z,24.55
2023-02-17T18:22:58.353Z,23.50
2023-02-17T18:26:01.731Z,22.27
2023-02-17T18:29:05.478Z,17.73
2023-02-17T18:32:09.126Z,22.67
2023-02-17T18:35:13.628Z,24.80
2023-02-17T18:38:24.738Z,26.05
2023-02-17T18:41:31.352Z,23.60
2023-02-17T18:44:34.663Z,25.10
2023-02-17T18:47:38.415Z,23.77
2023-02-17T18:50:41.791Z,23.67
2023-02-17T18:53:45.532Z,26.70
2023-02-17T18:56:49.174Z,23.70
2023-02-17T18:59:52.677Z,23.50
2023-02-17T19:02:56.306Z,22.30
2023-02-17T19:06:07.980Z,21.35
2023-02-17T19:09:12.210Z,19.58
2023-02-17T19:12:15.672Z,19.57
2023-02-17T19:15:21.037Z,21.87
2023-02-17T19:18:24.582Z,21.33
2023-02-17T19:21:30.659Z,23.42
2023-02-17T19:24:35.494Z,28.13
2023-02-17T19:27:42.080Z,25.77
2023-02-17T19:30:45.703Z,28.97
2023-02-17T19:33:49.263Z,26.23
2023-02-17T19:36:52.769Z,26.35
2023-02-17T19:39:56.384Z,28.55
2023-02-17T19:43:01.279Z,29.53
2023-02-17T19:46:05.358Z,29.47
2023-02-17T19:49:09.210Z,22.40
2023-02-17T19:52:12.977Z,27.67
2023-02-17T19:55:16.628Z,22.95
2023-02-17T19:58:20.164Z,23.37
2023-02-17T20:01:27.007Z,24.63
2023-02-17T20:04:31.126Z,23.90
2023-02-17T20:07:34.860Z,21.88
2023-02-17T20:10:40.643Z,24.33
2023-02-17T20:13:46.673Z,26.33
2023-02-17T20:16:53.331Z,20.77
2023-02-17T20:19:57.330Z,27.00
2023-02-17T20:23:00.917Z,26.25
2023-02-17T20:26:08.514Z,17.42
2023-02-17T20:29:13.556Z,18.53
2023-02-17T20:32:17.385Z,23.97
2023-02-17T20:35:21.037Z,21.92
2023-02-17T20:38:24.941Z,18.40
2023-02-17T20:41:28.457Z,27.35
2023-02-17T20:44:32.182Z,20.17
2023-02-17T20:47:38.615Z,21.47
2023-02-17T20:50:42.627Z,29.98
2023-02-17T20:53:46.556Z,27.33
2023-02-17T20:56:50.308Z,22.42
2023-02-17T20:59:53.831Z,28.23
2023-02-17T21:02:57.472Z,28.93
2023-02-17T21:06:03.589Z,29.70
2023-02-17T21:09:12.362Z,32.72
2023-02-17T21:12:15.910Z,25.30
2023-02-17T21:15:19.883Z,28.23
2023-02-17T21:18:23.813Z,23.70
2023-02-17T21:21:27.931Z,32.35
2023-02-17T21:24:31.372Z,32.65
2023-02-17T21:27:35.360Z,28.75
2023-02-17T21:30:39.162Z,33.07
2023-02-17T21:33:43.040Z,26.73
2023-02-17T21:36:46.594Z,24.23
2023-02-17T21:39:50.144Z,27.98
2023-02-17T21:43:12.212Z,24.75
2023-02-17T21:46:15.309Z,20.67
2023-02-17T21:49:18.851Z,26.50
2023-02-17T21:52:23.065Z,29.52
2023-02-17T21:55:26.530Z,31.15
2023-02-17T21:58:30.717Z,34.83
2023-02-17T22:01:34.447Z,30.27
2023-02-17T22:04:37.623Z,31.20
2023-02-17T22:07:40.808Z,29.98
2023-02-17T22:10:45.436Z,31.92
2023-02-17T22:13:48.863Z,28.05
2023-02-17T22:16:52.162Z,26.63
2023-02-17T22:19:56.756Z,25.40
2023-02-17T22:22:59.935Z,26.85
2023-02-17T22:26:10.617Z,24.13
2023-02-17T22:29:14.114Z,27.98
2023-02-17T22:32:17.341Z,28.17
2023-02-17T22:35:22.127Z,23.48
2023-02-17T22:38:25.963Z,29.02
2023-02-17T22:41:29.550Z,30.75
2023-02-17T22:44:32.734Z,26.63
2023-02-17T22:47:36.141Z,29.27
2023-02-17T22:50:40.794Z,26.17
2023-02-17T22:53:44.540Z,23.80
2023-02-17T22:56:47.982Z,24.95
2023-02-17T22:59:51.146Z,28.67
2023-02-17T23:02:54.448Z,28.07
2023-02-17T23:06:10.185Z,24.27
2023-02-17T23:09:17.158Z,26.92
2023-02-17T23:12:20.695Z,26.90
2023-02-17T23:15:39.271Z,24.27
2023-02-17T23:18:42.462Z,26.77
2023-02-17T23:21:48.418Z,27.00
2023-02-17T23:24:51.608Z,27.75
2023-02-17T23:27:54.839Z,24.05
2023-02-17T23:30:58.165Z,25.77
2023-02-17T23:34:01.509Z,27.13
2023-02-17T23:37:04.694Z,27.60
2023-02-17T23:40:10.028Z,28.95
2023-02-17T23:43:13.900Z,27.38
2023-02-17T23:46:17.321Z,28.70
2023-02-17T23:49:20.617Z,25.60
2023-02-17T23:52:23.868Z,25.98
2023-02-17T23:55:27.178Z,26.85
2023-02-17T23:58:31.651Z,25.88
